Driftmaster — AEJH — position and weather

sailwx.info

Track history (hours):
 
Tides and Currents Weather Stations Pressure Air Temp Water Temp Dewpoint Dewpoint Depression Visibility Wind Speed Wind Dir Waves Ship Positions

Driftmaster

Last reported at 2017-Oct-19 18:53 UTC. Time now 2017-Oct-19 23:37 UTC.
Position N 40°41' W 074°04'.

Length 30 m; draft 3 m.

MMSI: 366999411.

Date/timePositionNaut miles runAvg speedWind from/ knotsBaromVisibWave heightAir tempDewpointWater temp
2017-Oct-19 18:53N 40°41' W 074°04'0 0.4
2017-Oct-19 18:30N 40°41' W 074°03'2 4.3
2017-Oct-19 18:00N 40°40' W 074°01'3 0.1
2017-Oct-18 18:29N 40°41' W 074°04'1 3.2
2017-Oct-18 18:00N 40°41' W 074°02'1 2.9
2017-Oct-18 17:31N 40°41' W 074°01'1 2.7
2017-Oct-18 17:00N 40°40' W 074°01'3 0.1
2017-Oct-17 18:52N 40°41' W 074°04'2 4.3
2017-Oct-17 18:30N 40°40' W 074°02'1 1.7
2017-Oct-17 18:00N 40°40' W 074°01'2 3.9
2017-Oct-17 17:30N 40°41' W 074°02'3 6.3
2017-Oct-17 17:00N 40°45' W 074°01'4 0.2
2017-Oct-16 18:37N 40°41' W 074°04'0 2.5
2017-Oct-16 18:30N 40°41' W 074°04'0 0.0
2017-Oct-16 18:00N 40°41' W 074°04'1 1.2
2017-Oct-16 17:30N 40°41' W 074°03'2 3.3
2017-Oct-16 17:00N 40°40' W 074°01'1 1.6
2017-Oct-16 16:30N 40°39' W 074°02'0 0.0
2017-Oct-16 16:00N 40°39' W 074°02'0 0.0
2017-Oct-16 15:30N 40°39' W 074°02'0 0.5
2017-Oct-16 15:00N 40°39' W 074°02'1 1.8
2017-Oct-16 14:30N 40°40' W 074°01'4 3.5
2017-Oct-16 13:30N 40°39' W 074°06'3 5.0
2017-Oct-16 13:00N 40°39' W 074°09'2 3.5
2017-Oct-16 12:30N 40°39' W 074°07'2 3.8
2017-Oct-16 12:00N 40°39' W 074°04'2 0.1
2017-Oct-15 18:46N 40°41' W 074°04'0 1.5
2017-Oct-15 18:30N 40°41' W 074°04'0 0.0
2017-Oct-15 18:01N 40°41' W 074°04'0 0.6
2017-Oct-15 17:30N 40°41' W 074°04'3 6.5
2017-Oct-15 17:01N 40°43' W 074°02'1 1.4
2017-Oct-15 16:30N 40°44' W 074°02'0 0.0
2017-Oct-15 16:01N 40°44' W 074°02'0 0.0
2017-Oct-15 15:31N 40°44' W 074°02'1 1.7
2017-Oct-15 15:01N 40°43' W 074°02'4 3.7
2017-Oct-15 14:01N 40°40' W 074°03'2 4.3
2017-Oct-15 13:30N 40°38' W 074°03'1 2.9
2017-Oct-15 13:01N 40°36' W 074°03'3 5.5
2017-Oct-15 12:30N 40°39' W 074°04'2 4.3
2017-Oct-15 12:00N 40°41' W 074°04'0 0.0
2017-Oct-14 18:52N 40°41' W 074°04'1 1.4
2017-Oct-14 18:30N 40°41' W 074°04'0 0.0
2017-Oct-14 18:00N 40°41' W 074°04'0 0.0
2017-Oct-14 17:30N 40°41' W 074°04'1 2.3
2017-Oct-14 17:00N 40°41' W 074°02'3 5.9
2017-Oct-14 16:30N 40°44' W 074°02'0 0.0
2017-Oct-14 16:00N 40°44' W 074°02'0 0.0
2017-Oct-14 15:30N 40°44' W 074°02'1 3.0
2017-Oct-14 15:00N 40°43' W 074°02'2 3.8
2017-Oct-14 14:30N 40°41' W 074°02'2 4.3
2017-Oct-14 14:00N 40°39' W 074°02'2 3.6
2017-Oct-14 13:30N 40°37' W 074°03'2 3.3
2017-Oct-14 13:00N 40°35' W 074°03'2 3.2
2017-Oct-14 12:30N 40°37' W 074°03'3 6.6
2017-Oct-14 12:00N 40°40' W 074°03'1 0.0
2017-Oct-13 19:00N 40°41' W 074°04'0 0.4
2017-Oct-13 18:30N 40°41' W 074°04'0 0.0
2017-Oct-13 18:00N 40°41' W 074°04'2 3.4
2017-Oct-13 17:30N 40°40' W 074°02'2 3.3
2017-Oct-13 17:00N 40°39' W 074°02'0 0.0
2017-Oct-13 16:30N 40°39' W 074°02'0 0.0
2017-Oct-13 16:01N 40°39' W 074°02'2 4.8
2017-Oct-13 15:30N 40°41' W 074°02'0 0.9
2017-Oct-13 15:00N 40°42' W 074°01'1 2.8
2017-Oct-13 14:30N 40°40' W 074°01'2 3.8
2017-Oct-13 14:00N 40°39' W 074°02'2 4.2
2017-Oct-13 13:30N 40°37' W 074°02'2 3.5
2017-Oct-13 13:00N 40°35' W 074°02'2 3.7
2017-Oct-13 12:30N 40°37' W 074°03'3 6.5
2017-Oct-13 12:00N 40°40' W 074°03'2 3.0
2017-Oct-13 11:30N 40°41' W 074°04'0 0.0
2017-Oct-12 18:49N 40°41' W 074°04'1 2.7
2017-Oct-12 18:30N 40°40' W 074°04'1 2.9
2017-Oct-12 18:00N 40°41' W 074°02'2 4.4
2017-Oct-12 17:30N 40°43' W 074°02'2 3.8
2017-Oct-12 17:00N 40°45' W 074°01'5 1.0
2017-Oct-12 12:06N 40°41' W 074°04'0 2.6
2017-Oct-12 12:00N 40°41' W 074°04'0 0.0
2017-Oct-11 19:09N 40°41' W 074°04'0 1.9
2017-Oct-11 19:00N 40°41' W 074°04'1 1.5
2017-Oct-11 18:30N 40°41' W 074°03'2 3.9
2017-Oct-11 18:01N 40°42' W 074°02'1 1.7
2017-Oct-11 17:31N 40°42' W 074°01'1 2.7
2017-Oct-11 17:00N 40°42' W 073°59'4 0.2
2017-Oct-10 19:04N 40°41' W 074°04'0 0.0
2017-Oct-10 19:00N 40°41' W 074°04'1 2.2
2017-Oct-10 18:30N 40°41' W 074°03'1 2.7
2017-Oct-10 18:00N 40°42' W 074°02'1 2.5
2017-Oct-10 17:30N 40°42' W 074°00'2 3.4
2017-Oct-10 17:01N 40°43' W 074°01'1 1.4
2017-Oct-10 16:31N 40°44' W 074°02'0 0.0
2017-Oct-10 16:00N 40°44' W 074°02'0 0.0
2017-Oct-10 15:31N 40°44' W 074°02'0 0.6
2017-Oct-10 15:00N 40°44' W 074°01'3 2.8
2017-Oct-10 14:00N 40°42' W 074°02'1 2.9
2017-Oct-10 13:30N 40°40' W 074°01'3 5.3
2017-Oct-10 13:01N 40°38' W 074°03'2 3.8
2017-Oct-10 12:30N 40°40' W 074°03'2 3.8
2017-Oct-10 12:00N 40°41' W 074°04'0 0.0
2017-Oct-10 11:30N 40°41' W 074°04'  
Track history (hours):
 
Tides and Currents Weather Stations Pressure Air Temp Water Temp Dewpoint Dewpoint Depression Visibility Wind Speed Wind Dir Waves Ship Positions

Driftmaster

Last reported at 2017-Oct-19 18:53 UTC. Time now 2017-Oct-19 23:37 UTC.
Position N 40°41' W 074°04'.

Length 30 m; draft 3 m.

MMSI: 366999411.

Date/timePositionNaut miles runAvg speedWind from/ knotsBaromVisibWave heightAir tempDewpointWater temp
2017-Oct-19 18:53N 40°41' W 074°04'0 0.4
2017-Oct-19 18:30N 40°41' W 074°03'2 4.3
2017-Oct-19 18:00N 40°40' W 074°01'3 0.1
2017-Oct-18 18:29N 40°41' W 074°04'1 3.2
2017-Oct-18 18:00N 40°41' W 074°02'1 2.9
2017-Oct-18 17:31N 40°41' W 074°01'1 2.7
2017-Oct-18 17:00N 40°40' W 074°01'3 0.1
2017-Oct-17 18:52N 40°41' W 074°04'2 4.3
2017-Oct-17 18:30N 40°40' W 074°02'1 1.7
2017-Oct-17 18:00N 40°40' W 074°01'2 3.9
2017-Oct-17 17:30N 40°41' W 074°02'3 6.3
2017-Oct-17 17:00N 40°45' W 074°01'4 0.2
2017-Oct-16 18:37N 40°41' W 074°04'0 2.5
2017-Oct-16 18:30N 40°41' W 074°04'0 0.0
2017-Oct-16 18:00N 40°41' W 074°04'1 1.2
2017-Oct-16 17:30N 40°41' W 074°03'2 3.3
2017-Oct-16 17:00N 40°40' W 074°01'1 1.6
2017-Oct-16 16:30N 40°39' W 074°02'0 0.0
2017-Oct-16 16:00N 40°39' W 074°02'0 0.0
2017-Oct-16 15:30N 40°39' W 074°02'0 0.5
2017-Oct-16 15:00N 40°39' W 074°02'1 1.8
2017-Oct-16 14:30N 40°40' W 074°01'4 3.5
2017-Oct-16 13:30N 40°39' W 074°06'3 5.0
2017-Oct-16 13:00N 40°39' W 074°09'2 3.5
2017-Oct-16 12:30N 40°39' W 074°07'2 3.8
2017-Oct-16 12:00N 40°39' W 074°04'2 0.1
2017-Oct-15 18:46N 40°41' W 074°04'0 1.5
2017-Oct-15 18:30N 40°41' W 074°04'0 0.0
2017-Oct-15 18:01N 40°41' W 074°04'0 0.6
2017-Oct-15 17:30N 40°41' W 074°04'3 6.5
2017-Oct-15 17:01N 40°43' W 074°02'1 1.4
2017-Oct-15 16:30N 40°44' W 074°02'0 0.0
2017-Oct-15 16:01N 40°44' W 074°02'0 0.0
2017-Oct-15 15:31N 40°44' W 074°02'1 1.7
2017-Oct-15 15:01N 40°43' W 074°02'4 3.7
2017-Oct-15 14:01N 40°40' W 074°03'2 4.3
2017-Oct-15 13:30N 40°38' W 074°03'1 2.9
2017-Oct-15 13:01N 40°36' W 074°03'3 5.5
2017-Oct-15 12:30N 40°39' W 074°04'2 4.3
2017-Oct-15 12:00N 40°41' W 074°04'0 0.0
2017-Oct-14 18:52N 40°41' W 074°04'1 1.4
2017-Oct-14 18:30N 40°41' W 074°04'0 0.0
2017-Oct-14 18:00N 40°41' W 074°04'0 0.0
2017-Oct-14 17:30N 40°41' W 074°04'1 2.3
2017-Oct-14 17:00N 40°41' W 074°02'3 5.9
2017-Oct-14 16:30N 40°44' W 074°02'0 0.0
2017-Oct-14 16:00N 40°44' W 074°02'0 0.0
2017-Oct-14 15:30N 40°44' W 074°02'1 3.0
2017-Oct-14 15:00N 40°43' W 074°02'2 3.8
2017-Oct-14 14:30N 40°41' W 074°02'2 4.3
2017-Oct-14 14:00N 40°39' W 074°02'2 3.6
2017-Oct-14 13:30N 40°37' W 074°03'2 3.3
2017-Oct-14 13:00N 40°35' W 074°03'2 3.2
2017-Oct-14 12:30N 40°37' W 074°03'3 6.6
2017-Oct-14 12:00N 40°40' W 074°03'1 0.0
2017-Oct-13 19:00N 40°41' W 074°04'0 0.4
2017-Oct-13 18:30N 40°41' W 074°04'0 0.0
2017-Oct-13 18:00N 40°41' W 074°04'2 3.4
2017-Oct-13 17:30N 40°40' W 074°02'2 3.3
2017-Oct-13 17:00N 40°39' W 074°02'0 0.0
2017-Oct-13 16:30N 40°39' W 074°02'0 0.0
2017-Oct-13 16:01N 40°39' W 074°02'2 4.8
2017-Oct-13 15:30N 40°41' W 074°02'0 0.9
2017-Oct-13 15:00N 40°42' W 074°01'1 2.8
2017-Oct-13 14:30N 40°40' W 074°01'2 3.8
2017-Oct-13 14:00N 40°39' W 074°02'2 4.2
2017-Oct-13 13:30N 40°37' W 074°02'2 3.5
2017-Oct-13 13:00N 40°35' W 074°02'2 3.7
2017-Oct-13 12:30N 40°37' W 074°03'3 6.5
2017-Oct-13 12:00N 40°40' W 074°03'2 3.0
2017-Oct-13 11:30N 40°41' W 074°04'0 0.0
2017-Oct-12 18:49N 40°41' W 074°04'1 2.7
2017-Oct-12 18:30N 40°40' W 074°04'1 2.9
2017-Oct-12 18:00N 40°41' W 074°02'2 4.4
2017-Oct-12 17:30N 40°43' W 074°02'2 3.8
2017-Oct-12 17:00N 40°45' W 074°01'5 1.0
2017-Oct-12 12:06N 40°41' W 074°04'0 2.6
2017-Oct-12 12:00N 40°41' W 074°04'0 0.0
2017-Oct-11 19:09N 40°41' W 074°04'0 1.9
2017-Oct-11 19:00N 40°41' W 074°04'1 1.5
2017-Oct-11 18:30N 40°41' W 074°03'2 3.9
2017-Oct-11 18:01N 40°42' W 074°02'1 1.7
2017-Oct-11 17:31N 40°42' W 074°01'1 2.7
2017-Oct-11 17:00N 40°42' W 073°59'4 0.2
2017-Oct-10 19:04N 40°41' W 074°04'0 0.0
2017-Oct-10 19:00N 40°41' W 074°04'1 2.2
2017-Oct-10 18:30N 40°41' W 074°03'1 2.7
2017-Oct-10 18:00N 40°42' W 074°02'1 2.5
2017-Oct-10 17:30N 40°42' W 074°00'2 3.4
2017-Oct-10 17:01N 40°43' W 074°01'1 1.4
2017-Oct-10 16:31N 40°44' W 074°02'0 0.0
2017-Oct-10 16:00N 40°44' W 074°02'0 0.0
2017-Oct-10 15:31N 40°44' W 074°02'0 0.6
2017-Oct-10 15:00N 40°44' W 074°01'3 2.8
2017-Oct-10 14:00N 40°42' W 074°02'1 2.9
2017-Oct-10 13:30N 40°40' W 074°01'3 5.3
2017-Oct-10 13:01N 40°38' W 074°03'2 3.8
2017-Oct-10 12:30N 40°40' W 074°03'2 3.8
2017-Oct-10 12:00N 40°41' W 074°04'0 0.0
2017-Oct-10 11:30N 40°41' W 074°04'  

Dump ship's entire track history